Time;durP1;ratioP1;P1;durP2;ratioP2;P2;SDS_P1;SDS_P2;PMS_P1;PMS_P2;Temp;Humidity;BMP_temperature;BMP_pressure;BME280_temperature;BME280_humidity;BME280_pressure;Samples;Min_cycle;Max_cycle;Signal;HPM_P1;HPM_P2
2022/04/18 00:02:18;;;;;;;11.85;8.00;;;;;;;5.12;nan;102484.53;5076278;28;20024;-82
2022/04/18 00:04:43;;;;;;;12.23;7.93;;;;;;;5.04;nan;102483.72;5072899;28;20039;-82
2022/04/18 00:07:10;;;;;;;13.20;7.65;;;;;;;4.97;nan;102494.16;5072494;28;20028;-82
2022/04/18 00:09:36;;;;;;;13.85;8.10;;;;;;;4.95;nan;102480.22;5080745;28;20044;-82
2022/04/18 00:12:03;;;;;;;11.40;7.85;;;;;;;4.93;nan;102484.88;5076593;28;20020;-81
2022/04/18 00:14:29;;;;;;;14.25;7.93;;;;;;;4.93;nan;102478.75;5074871;28;20032;-82
2022/04/18 00:16:54;;;;;;;12.20;7.65;;;;;;;4.90;nan;102469.28;5078027;28;20024;-82
2022/04/18 00:19:20;;;;;;;14.52;9.07;;;;;;;4.87;nan;102472.28;5072920;28;20020;-82
2022/04/18 00:21:46;;;;;;;14.65;9.15;;;;;;;4.82;nan;102474.59;5074661;28;20041;-82
2022/04/18 00:24:14;;;;;;;14.95;9.60;;;;;;;4.79;nan;102473.13;5074007;28;20098;-81
2022/04/18 00:26:39;;;;;;;13.93;9.18;;;;;;;4.77;nan;102468.97;5072791;28;20024;-81
2022/04/18 00:29:06;;;;;;;14.98;10.00;;;;;;;4.75;nan;102461.19;5075675;28;20029;-82
2022/04/18 00:31:32;;;;;;;13.95;10.52;;;;;;;4.71;nan;102464.34;5072911;28;20094;-81
2022/04/18 00:33:58;;;;;;;16.52;10.63;;;;;;;4.70;nan;102468.00;5076439;28;20016;-81
2022/04/18 00:36:23;;;;;;;14.85;10.00;;;;;;;4.68;nan;102462.84;5075535;28;20430;-81
2022/04/18 00:38:49;;;;;;;17.95;11.40;;;;;;;4.66;nan;102456.03;5077343;28;20035;-81
2022/04/18 00:41:14;;;;;;;19.73;11.25;;;;;;;4.62;nan;102460.84;5070599;28;20028;-82
2022/04/18 00:43:43;;;;;;;19.63;11.50;;;;;;;4.58;nan;102456.03;5076633;28;21037;-81
2022/04/18 00:46:09;;;;;;;17.20;10.60;;;;;;;4.52;nan;102450.41;5079345;28;20060;-81
2022/04/18 00:48:35;;;;;;;16.85;9.23;;;;;;;4.48;nan;102457.03;5078018;28;20044;-81
2022/04/18 00:51:04;;;;;;;15.25;9.95;;;;;;;4.46;nan;102453.72;5074058;28;20055;-81
2022/04/18 00:53:31;;;;;;;17.52;9.55;;;;;;;4.42;nan;102455.03;5078892;28;20051;-81
2022/04/18 00:55:56;;;;;;;17.33;9.57;;;;;;;4.37;nan;102448.59;5089163;28;20035;-81
2022/04/18 00:58:22;;;;;;;13.25;9.30;;;;;;;4.33;nan;102449.91;5076688;28;20017;-81
2022/04/18 01:00:48;;;;;;;12.57;8.40;;;;;;;4.29;nan;102445.91;5076046;28;20047;-81
2022/04/18 01:03:14;;;;;;;14.13;8.75;;;;;;;4.24;nan;102433.16;5078879;28;20024;-81
2022/04/18 01:05:39;;;;;;;15.05;8.50;;;;;;;4.21;nan;102436.13;5076978;28;20020;-81
2022/04/18 01:08:06;;;;;;;14.82;8.30;;;;;;;4.20;nan;102426.53;5077079;28;20036;-81
2022/04/18 01:10:31;;;;;;;12.40;8.05;;;;;;;4.19;nan;102425.69;5076879;28;20031;-81
2022/04/18 01:12:57;;;;;;;15.52;9.57;;;;;;;4.17;nan;102426.84;5073054;28;20025;-81
2022/04/18 01:15:23;;;;;;;12.85;9.02;;;;;;;4.14;nan;102427.19;5071971;28;20119;-81
2022/04/18 01:17:48;;;;;;;15.90;9.70;;;;;;;4.10;nan;102425.84;5072246;28;20028;-81
2022/04/18 01:20:14;;;;;;;13.90;8.23;;;;;;;4.04;nan;102421.19;5079504;28;20964;-81
2022/04/18 01:22:42;;;;;;;15.68;8.80;;;;;;;3.99;nan;102423.53;5071407;28;20638;-81
2022/04/18 01:30:36;;;;;;;17.48;9.90;;;;;;;3.86;nan;102419.50;5074447;28;20071;-81
2022/04/18 01:33:02;;;;;;;16.60;10.25;;;;;;;3.83;nan;102411.88;5070785;28;20020;-81
2022/04/18 01:35:28;;;;;;;15.80;9.85;;;;;;;3.81;nan;102415.69;5070447;28;20036;-81
2022/04/18 01:37:53;;;;;;;15.55;9.52;;;;;;;3.78;nan;102408.06;5074108;28;20028;-81
2022/04/18 01:40:19;;;;;;;19.15;10.02;;;;;;;3.67;nan;102419.81;5071518;28;20036;-81
2022/04/18 01:42:45;;;;;;;16.55;9.48;;;;;;;3.55;nan;102410.47;5075555;28;20119;-81
2022/04/18 01:45:11;;;;;;;16.73;9.18;;;;;;;3.55;nan;102415.78;5074783;28;20025;-81
2022/04/18 01:47:36;;;;;;;15.23;8.95;;;;;;;3.55;nan;102418.44;5072975;28;20088;-81
2022/04/18 01:50:02;;;;;;;16.25;9.45;;;;;;;3.55;nan;102416.59;5069307;28;20048;-81
2022/04/18 01:52:27;;;;;;;16.08;9.57;;;;;;;3.56;nan;102415.63;5074728;28;21303;-81
2022/04/18 01:54:53;;;;;;;17.65;10.40;;;;;;;3.56;nan;102418.25;5073488;28;20013;-81
2022/04/18 01:57:18;;;;;;;17.00;10.93;;;;;;;3.53;nan;102412.47;5075400;28;21413;-81
2022/04/18 01:59:44;;;;;;;17.30;10.93;;;;;;;3.52;nan;102408.16;5072031;28;20058;-81
2022/04/18 02:02:10;;;;;;;16.38;10.63;;;;;;;3.50;nan;102408.31;5073298;28;20017;-81
2022/04/18 02:04:35;;;;;;;15.73;10.27;;;;;;;3.47;nan;102408.66;5071926;28;20350;-81
2022/04/18 02:07:01;;;;;;;16.15;9.98;;;;;;;3.39;nan;102400.66;5069351;28;20094;-81
2022/04/18 02:09:27;;;;;;;15.32;9.40;;;;;;;3.36;nan;102408.09;5074682;28;20043;-81
2022/04/18 02:11:52;;;;;;;15.85;9.63;;;;;;;3.34;nan;102410.91;5075818;28;20048;-81
2022/04/18 02:14:18;;;;;;;14.45;8.80;;;;;;;3.35;nan;102409.91;5071049;28;20035;-81
2022/04/18 02:16:43;;;;;;;16.25;9.55;;;;;;;3.34;nan;102408.25;5075509;28;20431;-81
2022/04/18 02:19:10;;;;;;;15.57;9.35;;;;;;;3.32;nan;102405.78;5067525;28;20024;-81
2022/04/18 02:21:36;;;;;;;13.77;8.93;;;;;;;3.28;nan;102399.13;5068753;28;20032;-81
2022/04/18 02:24:02;;;;;;;12.10;8.30;;;;;;;3.29;nan;102394.66;5069473;28;20027;-81
2022/04/18 02:26:27;;;;;;;16.35;9.27;;;;;;;3.28;nan;102399.13;5072105;28;20123;-81
2022/04/18 02:28:53;;;;;;;18.25;9.48;;;;;;;3.26;nan;102390.53;5065410;28;20031;-81
2022/04/18 02:31:19;;;;;;;15.07;9.43;;;;;;;3.21;nan;102389.31;5072407;28;20032;-81
2022/04/18 02:33:44;;;;;;;18.60;9.82;;;;;;;3.18;nan;102390.47;5070721;28;20627;-81
2022/04/18 02:36:10;;;;;;;17.15;9.77;;;;;;;3.16;nan;102384.50;5066158;28;20032;-81
2022/04/18 02:38:35;;;;;;;16.85;8.98;;;;;;;3.13;nan;102387.47;5067774;28;20126;-81
2022/04/18 02:41:01;;;;;;;18.52;9.45;;;;;;;3.10;nan;102384.34;5071376;28;20475;-81
2022/04/18 02:43:27;;;;;;;16.40;8.88;;;;;;;3.07;nan;102385.47;5070966;28;20130;-81
2022/04/18 02:45:52;;;;;;;14.85;8.45;;;;;;;3.03;nan;102390.25;5068860;28;20027;-81
2022/04/18 02:48:18;;;;;;;14.18;8.57;;;;;;;2.99;nan;102388.91;5074179;28;20024;-81
2022/04/18 02:50:43;;;;;;;15.73;9.15;;;;;;;2.96;nan;102385.75;5073024;28;20030;-82
2022/04/18 02:53:09;;;;;;;16.88;9.18;;;;;;;2.92;nan;102381.75;5070558;28;20100;-82
2022/04/18 02:55:34;;;;;;;15.55;8.43;;;;;;;2.87;nan;102382.25;5073204;28;20030;-81
2022/04/18 02:58:00;;;;;;;11.63;7.93;;;;;;;2.84;nan;102381.69;5077095;28;20028;-82
2022/04/18 03:00:25;;;;;;;14.85;8.70;;;;;;;2.80;nan;102385.66;5075469;28;20029;-82
2022/04/18 03:02:51;;;;;;;16.13;8.40;;;;;;;2.77;nan;102378.03;5072777;28;20028;-81
2022/04/18 03:05:17;;;;;;;17.00;8.35;;;;;;;2.75;nan;102372.91;5073706;28;20016;-81
2022/04/18 03:07:43;;;;;;;15.05;8.93;;;;;;;2.71;nan;102369.75;5075699;28;20031;-82
2022/04/18 03:10:09;;;;;;;13.50;8.00;;;;;;;2.71;nan;102368.91;5074853;28;20402;-81
2022/04/18 03:12:35;;;;;;;16.75;8.43;;;;;;;2.68;nan;102370.03;5076354;28;20046;-81
2022/04/18 03:15:01;;;;;;;11.77;7.10;;;;;;;2.68;nan;102380.63;5072005;28;20087;-82
2022/04/18 03:17:26;;;;;;;14.95;8.18;;;;;;;2.65;nan;102370.34;5073892;28;20080;-82
2022/04/18 03:19:55;;;;;;;15.77;8.38;;;;;;;2.63;nan;102361.75;5071994;28;20024;-82
2022/04/18 03:22:21;;;;;;;13.50;8.43;;;;;;;2.60;nan;102363.88;5075926;28;20024;-82
2022/04/18 03:24:47;;;;;;;14.52;8.57;;;;;;;2.58;nan;102358.75;5072394;28;20036;-82
2022/04/18 03:27:12;;;;;;;17.05;9.02;;;;;;;2.55;nan;102356.41;5070220;28;20115;-82
2022/04/18 03:29:38;;;;;;;13.77;8.23;;;;;;;2.52;nan;102356.72;5075194;28;20051;-82
2022/04/18 03:32:04;;;;;;;15.80;8.98;;;;;;;2.51;nan;102355.03;5072578;28;20024;-82
2022/04/18 03:34:31;;;;;;;16.85;8.95;;;;;;;2.49;nan;102354.38;5073502;28;20511;-82
2022/04/18 03:39:56;;;;;;;16.50;8.30;;;;;;;2.40;nan;102350.03;5069977;28;20145;-82
2022/04/18 03:42:29;;;;;;;12.90;7.85;;;;;;;2.34;nan;102337.44;5069630;28;20317;-82
2022/04/18 03:45:00;;;;;;;15.75;9.00;;;;;;;2.34;nan;102345.38;5069101;28;20040;-82
2022/04/18 03:47:26;;;;;;;17.98;8.75;;;;;;;2.35;nan;102341.72;5071770;28;20062;-82
2022/04/18 03:49:52;;;;;;;14.55;8.13;;;;;;;2.33;nan;102335.75;5071603;28;20093;-81
2022/04/18 03:52:18;;;;;;;16.65;8.13;;;;;;;2.31;nan;102337.72;5067887;28;20029;-83
2022/04/18 03:54:44;;;;;;;13.60;8.43;;;;;;;2.27;nan;102334.56;5065748;28;20092;-83
2022/04/18 03:57:10;;;;;;;17.75;9.38;;;;;;;2.27;nan;102339.00;5069054;28;20080;-83
2022/04/18 03:59:36;;;;;;;14.55;8.38;;;;;;;2.25;nan;102341.81;5067709;28;20050;-82
2022/04/18 04:02:02;;;;;;;17.58;9.63;;;;;;;2.24;nan;102329.56;5065202;28;20647;-82
2022/04/18 04:04:28;;;;;;;16.40;9.68;;;;;;;2.22;nan;102336.84;5068340;28;20040;-82
2022/04/18 04:06:54;;;;;;;16.65;8.30;;;;;;;2.21;nan;102351.03;5070406;28;20023;-83
2022/04/18 04:09:20;;;;;;;18.92;8.75;;;;;;;2.20;nan;102335.34;5070693;28;20020;-83
2022/04/18 04:11:45;;;;;;;13.57;8.75;;;;;;;2.19;nan;102333.69;5066830;28;20028;-83
2022/04/18 04:14:11;;;;;;;15.57;7.75;;;;;;;2.19;nan;102331.03;5069528;28;20040;-82
2022/04/18 04:16:39;;;;;;;15.73;8.73;;;;;;;2.16;nan;102332.19;5068356;28;20032;-83
2022/04/18 04:19:06;;;;;;;13.70;8.20;;;;;;;2.15;nan;102334.94;5071817;28;20115;-83
2022/04/18 04:21:33;;;;;;;14.57;7.68;;;;;;;2.15;nan;102335.78;5082507;28;20048;-83
2022/04/18 04:23:59;;;;;;;12.85;8.20;;;;;;;2.15;nan;102334.94;5069817;28;20081;-82
2022/04/18 04:26:26;;;;;;;15.45;8.57;;;;;;;2.15;nan;102325.19;5069028;28;20812;-82
2022/04/18 04:28:51;;;;;;;21.92;8.70;;;;;;;2.16;nan;102323.41;5070253;28;20397;-82
2022/04/18 04:31:17;;;;;;;19.55;8.80;;;;;;;2.17;nan;102330.34;5068507;28;20020;-82
2022/04/18 04:33:42;;;;;;;17.33;9.35;;;;;;;2.17;nan;102325.06;5067260;28;20588;-82
2022/04/18 04:36:08;;;;;;;14.48;8.63;;;;;;;2.20;nan;102333.53;5069362;28;20016;-82
2022/04/18 04:38:34;;;;;;;14.52;8.88;;;;;;;2.22;nan;102322.78;5069664;28;20049;-81
2022/04/18 04:40:59;;;;;;;17.30;8.27;;;;;;;2.24;nan;102326.94;5071401;28;20086;-82
2022/04/18 04:43:28;;;;;;;17.15;10.02;;;;;;;2.26;nan;102326.78;5071223;28;20036;-81
2022/04/18 04:45:57;;;;;;;22.30;10.70;;;;;;;2.28;nan;102325.63;5068061;28;20479;-82
2022/04/18 04:48:26;;;;;;;18.90;10.25;;;;;;;2.30;nan;102322.81;5073398;28;20029;-82
2022/04/18 04:50:51;;;;;;;22.90;11.02;;;;;;;2.33;nan;102319.88;5070377;28;20051;-82
2022/04/18 04:53:18;;;;;;;21.13;10.57;;;;;;;2.35;nan;102325.88;5065908;28;20024;-81
2022/04/18 04:55:44;;;;;;;21.33;9.90;;;;;;;2.38;nan;102326.38;5071274;28;20409;-81
2022/04/18 04:58:10;;;;;;;20.98;10.77;;;;;;;2.42;nan;102325.06;5072127;28;20021;-82
2022/04/18 05:00:37;;;;;;;18.00;9.68;;;;;;;2.45;nan;102326.56;5072216;28;20032;-82
2022/04/18 05:03:03;;;;;;;19.38;10.27;;;;;;;2.49;nan;102319.13;5067424;28;20162;-82
2022/04/18 05:05:28;;;;;;;19.60;10.02;;;;;;;2.52;nan;102319.69;5069741;28;20139;-82
2022/04/18 05:07:55;;;;;;;22.33;9.90;;;;;;;2.55;nan;102315.88;5067798;28;20158;-82
2022/04/18 05:10:21;;;;;;;25.60;11.23;;;;;;;2.59;nan;102322.53;5071372;28;20027;-82
2022/04/18 05:12:47;;;;;;;16.73;10.27;;;;;;;2.60;nan;102327.66;5069298;28;20020;-82
2022/04/18 05:15:13;;;;;;;24.73;12.07;;;;;;;2.66;nan;102326.19;5066295;28;20050;-82
2022/04/18 05:17:39;;;;;;;19.42;11.15;;;;;;;2.71;nan;102327.41;5068072;28;20027;-82
2022/04/18 05:20:06;;;;;;;17.45;10.32;;;;;;;2.74;nan;102326.25;5076328;28;20028;-82
2022/04/18 05:22:31;;;;;;;26.00;11.80;;;;;;;2.82;nan;102320.16;5069313;28;20489;-81
2022/04/18 05:24:57;;;;;;;27.65;12.80;;;;;;;2.92;nan;102323.50;5071073;28;20195;-81
2022/04/18 05:27:26;;;;;;;20.63;11.43;;;;;;;3.02;nan;102327.69;5070872;28;20030;-81
2022/04/18 05:29:51;;;;;;;24.50;12.88;;;;;;;3.12;nan;102322.25;5073986;28;20676;-81
2022/04/18 05:32:17;;;;;;;24.20;11.85;;;;;;;3.22;nan;102322.94;5073005;28;20024;-81
2022/04/18 05:34:43;;;;;;;22.70;10.80;;;;;;;3.32;nan;102331.59;5069856;28;20025;-81
2022/04/18 05:37:09;;;;;;;23.40;12.38;;;;;;;3.41;nan;102324.50;5070180;28;20083;-81
2022/04/18 05:39:35;;;;;;;24.23;11.07;;;;;;;3.51;nan;102327.81;5070234;28;20562;-81
2022/04/18 05:42:01;;;;;;;25.90;12.27;;;;;;;3.62;nan;102337.31;5071334;28;20016;-81
2022/04/18 05:44:27;;;;;;;24.48;12.13;;;;;;;3.69;nan;102333.00;5070040;28;20052;-81
2022/04/18 05:46:53;;;;;;;24.90;11.88;;;;;;;3.81;nan;102334.34;5069353;28;20035;-81
2022/04/18 05:49:19;;;;;;;23.90;11.60;;;;;;;3.92;nan;102334.00;5069537;28;20024;-81
2022/04/18 05:51:44;;;;;;;25.67;12.27;;;;;;;4.03;nan;102334.66;5070036;28;20429;-81
2022/04/18 05:54:10;;;;;;;25.50;12.80;;;;;;;4.15;nan;102339.47;5070354;28;20047;-81
2022/04/18 05:56:36;;;;;;;28.35;13.15;;;;;;;4.27;nan;102334.63;5069289;28;20043;-81
2022/04/18 05:59:02;;;;;;;32.30;16.50;;;;;;;4.40;nan;102337.63;5072388;28;20107;-81
2022/04/18 06:01:31;;;;;;;30.65;15.55;;;;;;;4.52;nan;102333.63;5072133;28;20044;-81
2022/04/18 06:03:57;;;;;;;29.73;15.68;;;;;;;4.65;nan;102341.03;5064846;28;20032;-81
2022/04/18 06:06:23;;;;;;;33.58;15.27;;;;;;;4.79;nan;102350.13;5071807;28;20024;-81
2022/04/18 06:08:48;;;;;;;29.20;14.95;;;;;;;4.91;nan;102346.13;5072935;28;20032;-81
2022/04/18 06:11:14;;;;;;;34.58;14.70;;;;;;;5.03;nan;102352.72;5068819;28;20269;-81
2022/04/18 06:13:40;;;;;;;27.40;14.45;;;;;;;5.18;nan;102354.63;5074766;28;20024;-81
2022/04/18 06:16:06;;;;;;;29.27;14.32;;;;;;;5.32;nan;102353.91;5077420;28;20020;-82
2022/04/18 06:18:32;;;;;;;29.88;15.23;;;;;;;5.44;nan;102361.31;5079101;28;20025;-82
2022/04/18 06:20:58;;;;;;;28.83;14.10;;;;;;;5.55;nan;102357.41;5076992;28;20437;-82
2022/04/18 06:23:23;;;;;;;23.88;13.02;;;;;;;5.66;nan;102354.38;5081467;28;20024;-81
2022/04/18 06:25:49;;;;;;;26.40;13.40;;;;;;;5.78;nan;102353.97;5079689;28;20036;-81
2022/04/18 06:28:15;;;;;;;27.40;13.73;;;;;;;5.89;nan;102345.56;5081525;28;20025;-81
2022/04/18 06:30:40;;;;;;;26.42;14.60;;;;;;;6.00;nan;102348.66;5078781;28;20032;-82
2022/04/18 06:33:10;;;;;;;29.50;14.65;;;;;;;6.10;nan;102342.25;5078213;28;20073;-82
2022/04/18 06:35:36;;;;;;;27.67;14.68;;;;;;;6.22;nan;102344.31;5075809;28;20179;-82
2022/04/18 06:38:01;;;;;;;25.13;13.63;;;;;;;6.31;nan;102340.59;5079583;28;20035;-82
2022/04/18 06:40:27;;;;;;;25.67;13.77;;;;;;;6.44;nan;102350.59;5081503;28;20029;-82
2022/04/18 06:42:52;;;;;;;26.00;13.32;;;;;;;6.53;nan;102344.19;5081767;28;20196;-82
2022/04/18 06:45:18;;;;;;;22.98;12.05;;;;;;;6.64;nan;102345.56;5077721;28;20070;-82
2022/04/18 06:47:44;;;;;;;21.55;12.90;;;;;;;6.76;nan;102341.44;5077701;28;20017;-81
2022/04/18 06:50:12;;;;;;;25.67;13.73;;;;;;;6.90;nan;102343.28;5078316;28;20035;-82
2022/04/18 06:52:41;;;;;;;25.45;13.13;;;;;;;7.06;nan;102346.75;5079107;28;20630;-82
2022/04/18 06:55:08;;;;;;;19.98;11.15;;;;;;;7.20;nan;102341.41;5078718;28;21264;-82
2022/04/18 06:57:34;;;;;;;20.30;12.02;;;;;;;7.33;nan;102335.38;5080670;28;20112;-82
2022/04/18 07:00:01;;;;;;;21.75;12.10;;;;;;;7.46;nan;102343.53;5077475;28;20021;-82
2022/04/18 07:02:27;;;;;;;21.38;11.93;;;;;;;7.61;nan;102329.34;5080642;28;20043;-82
2022/04/18 07:04:53;;;;;;;23.23;11.88;;;;;;;7.74;nan;102334.81;5082300;28;20028;-81
2022/04/18 07:07:19;;;;;;;17.45;10.82;;;;;;;7.88;nan;102326.72;5079038;28;20040;-82
2022/04/18 07:09:44;;;;;;;22.63;11.80;;;;;;;8.03;nan;102323.16;5077393;28;20036;-81
2022/04/18 07:12:10;;;;;;;18.70;10.68;;;;;;;8.14;nan;102315.47;5078874;28;20024;-82
2022/04/18 07:14:36;;;;;;;19.00;10.98;;;;;;;8.27;nan;102325.41;5076826;28;20062;-82
2022/04/18 07:17:02;;;;;;;18.67;10.48;;;;;;;8.39;nan;102326.53;5075036;28;20048;-82
2022/04/18 07:19:28;;;;;;;21.70;11.93;;;;;;;8.52;nan;102325.00;5078854;28;20093;-81
2022/04/18 07:21:55;;;;;;;16.42;9.90;;;;;;;8.65;nan;102333.94;5077524;28;20055;-82
2022/04/18 07:24:22;;;;;;;16.45;9.40;;;;;;;8.77;nan;102324.31;5076849;28;20017;-82
2022/04/18 07:26:48;;;;;;;16.02;8.98;;;;;;;8.90;nan;102322.75;5076715;28;20167;-81
2022/04/18 07:29:13;;;;;;;15.43;9.00;;;;;;;9.04;nan;102319.94;5081550;28;20028;-82
2022/04/18 07:31:39;;;;;;;16.67;8.85;;;;;;;9.19;nan;102317.13;5080258;28;20035;-82
2022/04/18 07:34:05;;;;;;;14.95;8.90;;;;;;;9.32;nan;102317.13;5081387;28;20028;-82
2022/04/18 07:36:30;;;;;;;15.13;8.38;;;;;;;9.46;nan;102306.47;5080327;28;20024;-82
2022/04/18 07:38:56;;;;;;;17.45;9.48;;;;;;;9.56;nan;102318.44;5077634;28;20033;-82
2022/04/18 07:41:23;;;;;;;16.85;8.70;;;;;;;9.70;nan;102313.94;5082364;28;20025;-82
2022/04/18 07:43:49;;;;;;;14.20;8.00;;;;;;;9.88;nan;102316.03;5084319;28;20020;-82
2022/04/18 07:46:16;;;;;;;12.82;8.38;;;;;;;10.05;nan;102311.06;5085624;28;20342;-82
2022/04/18 07:48:42;;;;;;;13.00;8.05;;;;;;;10.16;nan;102316.63;5079251;28;20051;-82
2022/04/18 07:53:52;;;;;;;15.70;8.60;;;;;;;10.42;nan;102301.59;5083251;28;20039;-81
2022/04/18 07:56:19;;;;;;;13.70;7.95;;;;;;;10.53;nan;102309.81;5082119;28;20016;-82
2022/04/18 07:58:45;;;;;;;14.38;7.88;;;;;;;10.68;nan;102306.06;5078537;28;20028;-82
2022/04/18 08:01:11;;;;;;;13.38;8.48;;;;;;;10.81;nan;102316.75;5079659;28;20028;-82
2022/04/18 08:03:37;;;;;;;15.07;8.68;;;;;;;10.90;nan;102310.09;5078223;28;20024;-82
2022/04/18 08:06:03;;;;;;;11.45;8.20;;;;;;;11.01;nan;102309.47;5078055;28;20059;-81
2022/04/18 08:08:30;;;;;;;12.30;8.02;;;;;;;11.14;nan;102309.41;5071242;28;20091;-82
2022/04/18 08:10:57;;;;;;;18.08;9.00;;;;;;;11.29;nan;102303.75;5069611;28;20081;-82
2022/04/18 08:13:23;;;;;;;12.80;7.85;;;;;;;11.42;nan;102303.66;5079633;28;20025;-82
2022/04/18 08:15:49;;;;;;;13.82;7.20;;;;;;;11.55;nan;102300.09;5081039;28;20111;-82
2022/04/18 08:18:15;;;;;;;11.60;6.95;;;;;;;11.67;nan;102294.81;5082426;28;20094;-82
2022/04/18 08:20:40;;;;;;;11.00;6.97;;;;;;;11.77;nan;102296.00;5080196;28;20031;-82
2022/04/18 08:23:06;;;;;;;10.45;6.93;;;;;;;11.90;nan;102291.59;5069772;28;20566;-83
2022/04/18 08:25:31;;;;;;;11.68;7.25;;;;;;;12.03;nan;102294.19;5067848;28;20124;-82
2022/04/18 08:27:57;;;;;;;12.75;7.80;;;;;;;12.12;nan;102298.22;5071277;28;20153;-82
2022/04/18 08:30:22;;;;;;;9.68;6.57;;;;;;;12.23;nan;102285.94;5067621;28;20021;-82
2022/04/18 08:32:48;;;;;;;11.45;6.20;;;;;;;12.36;nan;102278.56;5068656;28;20059;-82
2022/04/18 08:35:13;;;;;;;9.93;6.40;;;;;;;12.51;nan;102280.06;5071597;28;20025;-82
2022/04/18 08:37:39;;;;;;;6.70;4.65;;;;;;;12.65;nan;102278.88;5068905;28;20232;-82
2022/04/18 08:40:10;;;;;;;6.65;4.72;;;;;;;12.71;nan;102277.97;5070490;28;20024;-82
2022/04/18 08:42:38;;;;;;;6.60;4.10;;;;;;;12.80;nan;102273.13;5070365;28;20029;-81
2022/04/18 08:45:12;;;;;;;7.45;4.50;;;;;;;12.90;nan;102263.44;5074083;28;20021;-82
2022/04/18 08:53:10;;;;;;;6.65;3.60;;;;;;;13.21;nan;102269.72;5075711;28;20814;-81
2022/04/18 08:55:35;;;;;;;6.03;3.97;;;;;;;13.34;nan;102264.16;5072109;28;20020;-83
2022/04/18 08:58:01;;;;;;;5.95;3.72;;;;;;;13.42;nan;102265.69;5078778;28;20021;-82
2022/04/18 09:00:27;;;;;;;4.80;3.40;;;;;;;13.47;nan;102261.25;5073984;28;20025;-81
2022/04/18 09:02:56;;;;;;;4.50;3.00;;;;;;;13.53;nan;102249.56;5070751;28;20140;-81
2022/04/18 09:05:22;;;;;;;9.55;3.38;;;;;;;13.67;nan;102252.88;5078841;28;20161;-81
2022/04/18 09:07:59;;;;;;;4.57;2.85;;;;;;;13.76;nan;102246.06;5082069;28;20032;-81
2022/04/18 09:10:25;;;;;;;8.52;3.28;;;;;;;13.84;nan;102247.63;5079089;28;20024;-81
2022/04/18 09:12:51;;;;;;;7.22;3.47;;;;;;;13.92;nan;102244.56;5074936;28;20055;-82
2022/04/18 09:15:31;;;;;;;5.32;3.55;;;;;;;14.02;nan;102242.13;5081947;28;20948;-82
2022/04/18 09:18:17;;;;;;;3.80;2.85;;;;;;;14.17;nan;102242.44;5081353;28;20035;-82
2022/04/18 09:20:47;;;;;;;4.85;2.70;;;;;;;14.25;nan;102243.16;5075238;28;20024;-82
2022/04/18 09:23:33;;;;;;;4.72;2.95;;;;;;;14.34;nan;102231.75;5071690;28;20731;-82
2022/04/18 09:26:00;;;;;;;4.07;2.55;;;;;;;14.48;nan;102222.41;5067276;28;20024;-82
2022/04/18 09:28:31;;;;;;;4.00;2.65;;;;;;;14.55;nan;102224.16;5065434;28;20032;-81
2022/04/18 09:31:06;;;;;;;4.80;2.53;;;;;;;14.65;nan;102225.16;5067509;28;20032;-81
2022/04/18 09:33:32;;;;;;;;;;;;;;;14.70;nan;102219.03;5067040;28;20062;-81
2022/04/18 09:36:25;;;;;;;3.55;2.22;;;;;;;14.89;nan;102214.28;5064777;28;19912;-81
2022/04/18 09:38:55;;;;;;;4.32;2.28;;;;;;;15.00;nan;102221.53;5068418;28;20024;-82
2022/04/18 09:41:32;;;;;;;4.13;2.42;;;;;;;15.09;nan;102218.19;5069093;28;20035;-82
2022/04/18 09:43:59;;;;;;;3.78;1.90;;;;;;;15.19;nan;102216.72;5068725;28;20048;-82
2022/04/18 09:46:26;;;;;;;2.67;1.70;;;;;;;15.25;nan;102218.44;5074476;22;20043;-60
2022/04/18 09:48:52;;;;;;;3.45;1.95;;;;;;;15.25;nan;102216.56;4999506;28;20040;-60
2022/04/18 09:51:29;;;;;;;2.58;1.88;;;;;;;15.28;nan;102210.72;5004651;28;20714;-60
2022/04/18 09:53:57;;;;;;;2.97;1.65;;;;;;;15.45;nan;102213.41;4981713;28;20030;-60
2022/04/18 09:56:23;;;;;;;2.55;1.70;;;;;;;15.61;nan;102203.69;4983489;28;20038;-60
2022/04/18 09:58:49;;;;;;;2.20;1.73;;;;;;;15.67;nan;102198.13;4983262;28;20030;-60
2022/04/18 10:01:16;;;;;;;3.25;1.90;;;;;;;15.81;nan;102192.41;4985462;28;20089;-60
2022/04/18 10:03:43;;;;;;;1.73;1.48;;;;;;;15.92;nan;102197.69;4983582;28;20452;-60
2022/04/18 10:06:10;;;;;;;1.67;1.58;;;;;;;16.00;nan;102194.56;4984710;28;20034;-60
2022/04/18 10:08:37;;;;;;;2.40;1.27;;;;;;;16.11;nan;102186.59;4982958;28;20026;-61
2022/04/18 10:11:04;;;;;;;2.00;1.50;;;;;;;16.10;nan;102188.47;4984077;28;20034;-61
2022/04/18 10:13:31;;;;;;;4.45;1.75;;;;;;;16.07;nan;102178.16;4982577;28;20030;-60
2022/04/18 10:15:58;;;;;;;2.80;1.65;;;;;;;16.08;nan;102173.56;4980403;28;20031;-62
2022/04/18 10:18:23;;;;;;;1.67;1.33;;;;;;;16.12;nan;102172.00;4981856;28;20112;-60
2022/04/18 10:21:07;;;;;;;2.47;1.02;;;;;;;16.17;nan;102181.00;4981477;28;20082;-60
2022/04/18 10:24:03;;;;;;;3.83;1.30;;;;;;;16.28;nan;102174.66;4981045;28;20077;-60
2022/04/18 10:26:49;;;;;;;2.60;1.20;;;;;;;16.48;nan;102176.78;4980884;28;20030;-60
2022/04/18 10:29:20;;;;;;;2.58;0.95;;;;;;;16.56;nan;102176.34;4986890;28;20033;-60
2022/04/18 10:31:48;;;;;;;2.85;1.23;;;;;;;16.66;nan;102167.50;4983970;28;20117;-60
2022/04/18 10:34:13;;;;;;;2.70;1.20;;;;;;;16.61;nan;102159.34;4984262;28;20030;-60
2022/04/18 10:36:50;;;;;;;3.92;1.30;;;;;;;16.46;nan;102151.88;4982621;28;20441;-60
2022/04/18 10:39:16;;;;;;;1.60;0.93;;;;;;;16.60;nan;102147.72;4985815;28;20030;-60
2022/04/18 10:41:46;;;;;;;2.42;0.90;;;;;;;16.75;nan;102148.97;4984825;28;20034;-60
2022/04/18 10:44:13;;;;;;;1.10;1.00;;;;;;;16.90;nan;102141.81;4984737;28;20035;-60
2022/04/18 10:46:41;;;;;;;2.63;0.80;;;;;;;16.98;nan;102140.53;4981901;28;20037;-60
2022/04/18 10:49:16;;;;;;;2.25;1.17;;;;;;;16.96;nan;102139.97;4984097;28;20031;-60
2022/04/18 10:51:44;;;;;;;6.72;1.25;;;;;;;16.97;nan;102138.91;4984447;28;20049;-60
2022/04/18 10:54:11;;;;;;;9.20;1.50;;;;;;;17.02;nan;102141.66;4980239;28;20435;-60
2022/04/18 10:56:49;;;;;;;2.40;1.23;;;;;;;17.08;nan;102135.22;4983427;28;20072;-60
2022/04/18 10:59:20;;;;;;;1.80;1.10;;;;;;;17.22;nan;102136.41;4980678;28;20030;-60
2022/04/18 11:01:46;;;;;;;2.15;1.38;;;;;;;17.25;nan;102121.53;4984308;28;20681;-60
2022/04/18 11:04:12;;;;;;;2.05;1.10;;;;;;;17.35;nan;102126.22;4985170;28;20038;-60
2022/04/18 11:06:39;;;;;;;2.70;1.25;;;;;;;17.40;nan;102120.81;4981188;28;20117;-60
2022/04/18 11:09:21;;;;;;;2.25;1.42;;;;;;;17.46;nan;102123.31;4983533;28;20034;-60
2022/04/18 11:12:05;;;;;;;4.10;1.40;;;;;;;17.63;nan;102123.16;4983039;28;20039;-60
2022/04/18 11:14:41;;;;;;;2.60;1.30;;;;;;;17.69;nan;102119.44;4982972;28;20010;-60
2022/04/18 11:17:10;;;;;;;2.40;1.80;;;;;;;17.84;nan;102109.75;4986872;28;20113;-60
2022/04/18 11:19:38;;;;;;;3.85;1.80;;;;;;;17.93;nan;102105.44;4988533;28;20038;-61
2022/04/18 11:22:19;;;;;;;2.55;1.40;;;;;;;17.90;nan;102101.38;4984436;28;20113;-61
2022/04/18 11:24:54;;;;;;;2.72;1.27;;;;;;;17.96;nan;102103.03;4984138;28;20018;-61
2022/04/18 11:27:26;;;;;;;2.55;1.70;;;;;;;18.08;nan;102105.50;4984752;28;20400;-61
2022/04/18 11:30:05;;;;;;;2.00;1.25;;;;;;;18.09;nan;102110.66;4986950;28;20082;-60
2022/04/18 11:32:34;;;;;;;2.65;1.70;;;;;;;18.21;nan;102101.50;4988741;28;20034;-61
2022/04/18 11:35:00;;;;;;;2.00;1.65;;;;;;;18.37;nan;102098.56;4985576;28;20022;-61
2022/04/18 11:37:34;;;;;;;3.03;1.40;;;;;;;18.53;nan;102093.19;4989565;28;20030;-61
2022/04/18 11:40:15;;;;;;;2.37;1.60;;;;;;;18.67;nan;102094.28;4988163;28;20027;-61
2022/04/18 11:42:42;;;;;;;2.50;1.85;;;;;;;18.81;nan;102091.88;4987628;28;20292;-61
2022/04/18 11:45:10;;;;;;;1.75;1.65;;;;;;;18.89;nan;102094.06;4986929;28;20033;-61
2022/04/18 11:47:41;;;;;;;2.70;2.10;;;;;;;18.95;nan;102092.97;4989912;28;20030;-61
2022/04/18 11:50:07;;;;;;;2.85;1.65;;;;;;;19.01;nan;102092.69;4986972;28;20042;-61
2022/04/18 11:52:38;;;;;;;2.00;1.60;;;;;;;19.06;nan;102085.66;4987773;28;20036;-61
2022/04/18 11:55:06;;;;;;;2.55;1.70;;;;;;;19.16;nan;102086.44;4988432;28;20033;-61
2022/04/18 11:57:34;;;;;;;3.05;2.00;;;;;;;19.23;nan;102072.59;4984859;28;20475;-61